sensor_id;sensor_type;location;lat;lon;timestamp;P1;durP1;ratioP1;P2;durP2;ratioP2
59054;SDS011;44845;51.444;7.460;2022-09-03T00:02:40;2.13;;;0.93;;
59054;SDS011;44845;51.444;7.460;2022-09-03T00:08:01;1.77;;;0.70;;
59054;SDS011;44845;51.444;7.460;2022-09-03T00:13:03;3.03;;;1.10;;
59054;SDS011;44845;51.444;7.460;2022-09-03T00:15:29;0.60;;;0.60;;
59054;SDS011;44845;51.444;7.460;2022-09-03T00:17:58;3.08;;;0.88;;
59054;SDS011;44845;51.444;7.460;2022-09-03T00:20:29;1.33;;;0.80;;
59054;SDS011;44845;51.444;7.460;2022-09-03T00:22:56;4.82;;;0.80;;
59054;SDS011;44845;51.444;7.460;2022-09-03T00:25:27;1.85;;;0.80;;
59054;SDS011;44845;51.444;7.460;2022-09-03T00:27:54;1.10;;;0.75;;
59054;SDS011;44845;51.444;7.460;2022-09-03T00:30:21;1.67;;;0.70;;
59054;SDS011;44845;51.444;7.460;2022-09-03T00:35:22;1.85;;;0.88;;
59054;SDS011;44845;51.444;7.460;2022-09-03T00:37:50;1.10;;;0.73;;
59054;SDS011;44845;51.444;7.460;2022-09-03T00:40:18;1.90;;;0.60;;
59054;SDS011;44845;51.444;7.460;2022-09-03T00:42:54;2.05;;;0.73;;
59054;SDS011;44845;51.444;7.460;2022-09-03T00:45:40;1.92;;;0.90;;
59054;SDS011;44845;51.444;7.460;2022-09-03T00:48:22;1.58;;;0.60;;
59054;SDS011;44845;51.444;7.460;2022-09-03T01:01:56;1.08;;;0.60;;
59054;SDS011;44845;51.444;7.460;2022-09-03T01:04:07;1.60;;;0.90;;
59054;SDS011;44845;51.444;7.460;2022-09-03T01:06:38;1.27;;;0.80;;
59054;SDS011;44845;51.444;7.460;2022-09-03T01:11:50;1.08;;;0.65;;
59054;SDS011;44845;51.444;7.460;2022-09-03T01:34:15;1.45;;;0.60;;
59054;SDS011;44845;51.444;7.460;2022-09-03T01:36:56;2.05;;;0.70;;
59054;SDS011;44845;51.444;7.460;2022-09-03T01:39:31;2.22;;;0.60;;
59054;SDS011;44845;51.444;7.460;2022-09-03T01:50:42;1.27;;;0.65;;
59054;SDS011;44845;51.444;7.460;2022-09-03T01:58:27;2.28;;;0.75;;
59054;SDS011;44845;51.444;7.460;2022-09-03T02:00:56;1.70;;;0.65;;
59054;SDS011;44845;51.444;7.460;2022-09-03T02:03:23;0.98;;;0.75;;
59054;SDS011;44845;51.444;7.460;2022-09-03T02:05:50;2.05;;;0.52;;
59054;SDS011;44845;51.444;7.460;2022-09-03T02:08:17;1.85;;;0.65;;
59054;SDS011;44845;51.444;7.460;2022-09-03T02:10:44;1.95;;;0.70;;
59054;SDS011;44845;51.444;7.460;2022-09-03T02:13:12;1.73;;;0.43;;
59054;SDS011;44845;51.444;7.460;2022-09-03T02:15:39;1.85;;;0.70;;
59054;SDS011;44845;51.444;7.460;2022-09-03T02:18:07;1.00;;;0.63;;
59054;SDS011;44845;51.444;7.460;2022-09-03T02:20:35;2.90;;;0.70;;
59054;SDS011;44845;51.444;7.460;2022-09-03T02:23:01;2.05;;;0.80;;
59054;SDS011;44845;51.444;7.460;2022-09-03T02:25:31;0.65;;;0.65;;
59054;SDS011;44845;51.444;7.460;2022-09-03T02:27:59;1.23;;;0.50;;
59054;SDS011;44845;51.444;7.460;2022-09-03T02:30:25;0.90;;;0.60;;
59054;SDS011;44845;51.444;7.460;2022-09-03T02:32:51;2.05;;;0.85;;
59054;SDS011;44845;51.444;7.460;2022-09-03T02:35:16;1.43;;;0.70;;
59054;SDS011;44845;51.444;7.460;2022-09-03T02:37:41;2.00;;;0.77;;
59054;SDS011;44845;51.444;7.460;2022-09-03T02:40:07;0.73;;;0.50;;
59054;SDS011;44845;51.444;7.460;2022-09-03T02:42:34;1.58;;;0.63;;
59054;SDS011;44845;51.444;7.460;2022-09-03T02:45:00;1.33;;;0.60;;
59054;SDS011;44845;51.444;7.460;2022-09-03T02:47:29;2.90;;;0.65;;
59054;SDS011;44845;51.444;7.460;2022-09-03T02:49:55;1.85;;;0.60;;
59054;SDS011;44845;51.444;7.460;2022-09-03T02:52:21;1.85;;;0.70;;
59054;SDS011;44845;51.444;7.460;2022-09-03T02:54:46;1.17;;;0.82;;
59054;SDS011;44845;51.444;7.460;2022-09-03T02:57:12;3.87;;;1.10;;
59054;SDS011;44845;51.444;7.460;2022-09-03T02:59:38;1.77;;;0.60;;
59054;SDS011;44845;51.444;7.460;2022-09-03T03:02:04;1.52;;;0.60;;
59054;SDS011;44845;51.444;7.460;2022-09-03T03:04:29;1.42;;;0.68;;
59054;SDS011;44845;51.444;7.460;2022-09-03T03:06:55;1.35;;;0.57;;
59054;SDS011;44845;51.444;7.460;2022-09-03T03:09:20;0.67;;;0.50;;
59054;SDS011;44845;51.444;7.460;2022-09-03T03:11:45;2.60;;;0.77;;
59054;SDS011;44845;51.444;7.460;2022-09-03T03:14:10;0.97;;;0.70;;
59054;SDS011;44845;51.444;7.460;2022-09-03T03:16:35;3.23;;;0.80;;
59054;SDS011;44845;51.444;7.460;2022-09-03T03:19:01;1.63;;;0.70;;
59054;SDS011;44845;51.444;7.460;2022-09-03T03:21:26;1.23;;;0.70;;
59054;SDS011;44845;51.444;7.460;2022-09-03T03:23:51;2.08;;;0.90;;
59054;SDS011;44845;51.444;7.460;2022-09-03T03:26:17;1.20;;;0.55;;
59054;SDS011;44845;51.444;7.460;2022-09-03T03:28:43;0.80;;;0.80;;
59054;SDS011;44845;51.444;7.460;2022-09-03T03:31:12;0.75;;;0.60;;
59054;SDS011;44845;51.444;7.460;2022-09-03T03:33:38;3.03;;;0.70;;
59054;SDS011;44845;51.444;7.460;2022-09-03T03:36:11;1.17;;;0.80;;
59054;SDS011;44845;51.444;7.460;2022-09-03T03:38:37;3.50;;;0.50;;
59054;SDS011;44845;51.444;7.460;2022-09-03T03:41:09;2.93;;;0.70;;
59054;SDS011;44845;51.444;7.460;2022-09-03T03:43:34;0.73;;;0.52;;
59054;SDS011;44845;51.444;7.460;2022-09-03T03:45:59;1.80;;;0.70;;
59054;SDS011;44845;51.444;7.460;2022-09-03T03:48:25;0.70;;;0.67;;
59054;SDS011;44845;51.444;7.460;2022-09-03T03:50:50;1.02;;;0.50;;
59054;SDS011;44845;51.444;7.460;2022-09-03T03:53:15;1.00;;;0.77;;
59054;SDS011;44845;51.444;7.460;2022-09-03T03:55:40;4.30;;;0.77;;
59054;SDS011;44845;51.444;7.460;2022-09-03T03:58:06;3.13;;;0.80;;
59054;SDS011;44845;51.444;7.460;2022-09-03T04:00:31;4.15;;;0.98;;
59054;SDS011;44845;51.444;7.460;2022-09-03T04:03:01;0.75;;;0.60;;
59054;SDS011;44845;51.444;7.460;2022-09-03T04:05:27;2.25;;;0.70;;
59054;SDS011;44845;51.444;7.460;2022-09-03T04:07:52;4.10;;;0.75;;
59054;SDS011;44845;51.444;7.460;2022-09-03T04:10:17;2.10;;;0.77;;
59054;SDS011;44845;51.444;7.460;2022-09-03T04:12:42;2.00;;;0.90;;
59054;SDS011;44845;51.444;7.460;2022-09-03T04:15:08;4.30;;;0.88;;
59054;SDS011;44845;51.444;7.460;2022-09-03T04:17:33;2.45;;;0.70;;
59054;SDS011;44845;51.444;7.460;2022-09-03T04:19:58;6.47;;;1.00;;
59054;SDS011;44845;51.444;7.460;2022-09-03T04:22:23;1.45;;;0.70;;
59054;SDS011;44845;51.444;7.460;2022-09-03T04:24:48;0.88;;;0.65;;
59054;SDS011;44845;51.444;7.460;2022-09-03T04:27:13;1.83;;;0.70;;
59054;SDS011;44845;51.444;7.460;2022-09-03T04:29:38;3.10;;;0.60;;
59054;SDS011;44845;51.444;7.460;2022-09-03T04:32:04;2.03;;;0.68;;
59054;SDS011;44845;51.444;7.460;2022-09-03T04:34:48;1.73;;;0.93;;
59054;SDS011;44845;51.444;7.460;2022-09-03T04:37:13;1.73;;;0.73;;
59054;SDS011;44845;51.444;7.460;2022-09-03T04:39:40;3.08;;;0.80;;
59054;SDS011;44845;51.444;7.460;2022-09-03T04:42:05;2.17;;;0.45;;
59054;SDS011;44845;51.444;7.460;2022-09-03T04:44:30;0.50;;;0.50;;
59054;SDS011;44845;51.444;7.460;2022-09-03T04:46:56;3.42;;;0.80;;
59054;SDS011;44845;51.444;7.460;2022-09-03T04:49:21;0.70;;;0.60;;
59054;SDS011;44845;51.444;7.460;2022-09-03T04:51:46;1.13;;;0.80;;
59054;SDS011;44845;51.444;7.460;2022-09-03T04:54:11;1.30;;;0.70;;
59054;SDS011;44845;51.444;7.460;2022-09-03T04:56:37;1.00;;;0.70;;
59054;SDS011;44845;51.444;7.460;2022-09-03T04:59:03;1.48;;;0.93;;
59054;SDS011;44845;51.444;7.460;2022-09-03T05:01:30;0.55;;;0.50;;
59054;SDS011;44845;51.444;7.460;2022-09-03T05:03:56;1.60;;;0.75;;
59054;SDS011;44845;51.444;7.460;2022-09-03T05:06:22;1.70;;;0.88;;
59054;SDS011;44845;51.444;7.460;2022-09-03T05:08:49;1.42;;;0.80;;
59054;SDS011;44845;51.444;7.460;2022-09-03T05:11:14;1.23;;;0.77;;
59054;SDS011;44845;51.444;7.460;2022-09-03T05:13:40;2.05;;;0.95;;
59054;SDS011;44845;51.444;7.460;2022-09-03T05:16:06;1.35;;;0.73;;
59054;SDS011;44845;51.444;7.460;2022-09-03T05:18:32;0.60;;;0.60;;
59054;SDS011;44845;51.444;7.460;2022-09-03T05:21:00;1.88;;;0.80;;
59054;SDS011;44845;51.444;7.460;2022-09-03T05:23:25;0.88;;;0.68;;
59054;SDS011;44845;51.444;7.460;2022-09-03T05:25:54;1.77;;;0.80;;
59054;SDS011;44845;51.444;7.460;2022-09-03T05:28:21;3.10;;;0.95;;
59054;SDS011;44845;51.444;7.460;2022-09-03T05:30:46;1.93;;;1.07;;
59054;SDS011;44845;51.444;7.460;2022-09-03T05:33:11;1.92;;;0.85;;
59054;SDS011;44845;51.444;7.460;2022-09-03T05:35:39;1.77;;;0.90;;
59054;SDS011;44845;51.444;7.460;2022-09-03T05:38:05;1.30;;;0.90;;
59054;SDS011;44845;51.444;7.460;2022-09-03T05:40:31;0.75;;;0.50;;
59054;SDS011;44845;51.444;7.460;2022-09-03T05:42:57;2.85;;;0.90;;
59054;SDS011;44845;51.444;7.460;2022-09-03T05:45:23;2.20;;;0.98;;
59054;SDS011;44845;51.444;7.460;2022-09-03T05:47:48;0.90;;;0.70;;
59054;SDS011;44845;51.444;7.460;2022-09-03T05:50:13;1.33;;;0.70;;
59054;SDS011;44845;51.444;7.460;2022-09-03T05:52:39;3.13;;;0.90;;
59054;SDS011;44845;51.444;7.460;2022-09-03T05:55:04;1.00;;;0.90;;
59054;SDS011;44845;51.444;7.460;2022-09-03T05:57:29;2.28;;;0.90;;
59054;SDS011;44845;51.444;7.460;2022-09-03T05:59:54;2.30;;;0.70;;
59054;SDS011;44845;51.444;7.460;2022-09-03T06:02:20;2.05;;;0.82;;
59054;SDS011;44845;51.444;7.460;2022-09-03T06:04:45;1.75;;;0.75;;
59054;SDS011;44845;51.444;7.460;2022-09-03T06:07:10;1.23;;;0.60;;
59054;SDS011;44845;51.444;7.460;2022-09-03T06:09:36;4.43;;;1.00;;
59054;SDS011;44845;51.444;7.460;2022-09-03T06:12:01;2.30;;;0.73;;
59054;SDS011;44845;51.444;7.460;2022-09-03T06:14:26;2.78;;;0.70;;
59054;SDS011;44845;51.444;7.460;2022-09-03T06:16:52;2.13;;;0.70;;
59054;SDS011;44845;51.444;7.460;2022-09-03T06:19:17;2.53;;;1.00;;
59054;SDS011;44845;51.444;7.460;2022-09-03T06:21:43;1.05;;;0.80;;
59054;SDS011;44845;51.444;7.460;2022-09-03T06:24:09;2.08;;;1.00;;
59054;SDS011;44845;51.444;7.460;2022-09-03T06:26:36;2.05;;;1.05;;
59054;SDS011;44845;51.444;7.460;2022-09-03T06:29:01;1.60;;;0.75;;
59054;SDS011;44845;51.444;7.460;2022-09-03T06:31:26;2.67;;;0.77;;
59054;SDS011;44845;51.444;7.460;2022-09-03T06:33:52;1.55;;;0.90;;
59054;SDS011;44845;51.444;7.460;2022-09-03T06:36:18;2.60;;;0.60;;
59054;SDS011;44845;51.444;7.460;2022-09-03T06:38:44;2.63;;;0.70;;
59054;SDS011;44845;51.444;7.460;2022-09-03T06:41:14;1.38;;;0.68;;
59054;SDS011;44845;51.444;7.460;2022-09-03T06:43:41;2.08;;;0.80;;
59054;SDS011;44845;51.444;7.460;2022-09-03T06:46:10;1.65;;;0.80;;
59054;SDS011;44845;51.444;7.460;2022-09-03T06:48:36;1.63;;;1.27;;
59054;SDS011;44845;51.444;7.460;2022-09-03T06:51:03;1.85;;;0.90;;
59054;SDS011;44845;51.444;7.460;2022-09-03T06:53:30;3.63;;;0.85;;
59054;SDS011;44845;51.444;7.460;2022-09-03T06:55:58;1.13;;;0.77;;
59054;SDS011;44845;51.444;7.460;2022-09-03T06:58:24;2.95;;;0.73;;
59054;SDS011;44845;51.444;7.460;2022-09-03T07:00:52;1.85;;;0.80;;
59054;SDS011;44845;51.444;7.460;2022-09-03T07:03:18;1.20;;;0.70;;
59054;SDS011;44845;51.444;7.460;2022-09-03T07:05:43;2.47;;;0.68;;
59054;SDS011;44845;51.444;7.460;2022-09-03T07:08:09;2.53;;;0.77;;
59054;SDS011;44845;51.444;7.460;2022-09-03T07:10:35;3.03;;;0.77;;
59054;SDS011;44845;51.444;7.460;2022-09-03T07:13:01;3.92;;;0.95;;
59054;SDS011;44845;51.444;7.460;2022-09-03T07:15:26;1.07;;;0.57;;
59054;SDS011;44845;51.444;7.460;2022-09-03T07:17:51;2.10;;;0.70;;
59054;SDS011;44845;51.444;7.460;2022-09-03T07:20:16;1.80;;;0.77;;
59054;SDS011;44845;51.444;7.460;2022-09-03T07:22:42;2.67;;;0.85;;
59054;SDS011;44845;51.444;7.460;2022-09-03T07:25:07;1.00;;;0.70;;
59054;SDS011;44845;51.444;7.460;2022-09-03T07:27:33;3.22;;;0.80;;
59054;SDS011;44845;51.444;7.460;2022-09-03T07:29:59;0.60;;;0.50;;
59054;SDS011;44845;51.444;7.460;2022-09-03T07:32:24;2.60;;;0.60;;
59054;SDS011;44845;51.444;7.460;2022-09-03T07:34:49;0.80;;;0.60;;
59054;SDS011;44845;51.444;7.460;2022-09-03T07:37:16;1.00;;;0.70;;
59054;SDS011;44845;51.444;7.460;2022-09-03T07:39:42;0.63;;;0.52;;
59054;SDS011;44845;51.444;7.460;2022-09-03T07:42:08;0.70;;;0.50;;
59054;SDS011;44845;51.444;7.460;2022-09-03T07:44:34;0.90;;;0.60;;
59054;SDS011;44845;51.444;7.460;2022-09-03T07:47:00;0.60;;;0.60;;
59054;SDS011;44845;51.444;7.460;2022-09-03T07:49:25;1.33;;;0.60;;
59054;SDS011;44845;51.444;7.460;2022-09-03T07:51:50;1.40;;;0.70;;
59054;SDS011;44845;51.444;7.460;2022-09-03T07:54:17;7.03;;;0.57;;
59054;SDS011;44845;51.444;7.460;2022-09-03T07:56:44;4.03;;;1.20;;
59054;SDS011;44845;51.444;7.460;2022-09-03T07:59:09;2.20;;;0.90;;
59054;SDS011;44845;51.444;7.460;2022-09-03T08:01:36;2.17;;;0.77;;
59054;SDS011;44845;51.444;7.460;2022-09-03T08:04:01;1.77;;;0.50;;
59054;SDS011;44845;51.444;7.460;2022-09-03T08:06:28;2.05;;;0.77;;
59054;SDS011;44845;51.444;7.460;2022-09-03T08:08:57;1.45;;;0.80;;
59054;SDS011;44845;51.444;7.460;2022-09-03T08:11:24;3.28;;;0.80;;
59054;SDS011;44845;51.444;7.460;2022-09-03T08:13:59;2.50;;;0.80;;
59054;SDS011;44845;51.444;7.460;2022-09-03T08:16:25;0.98;;;0.75;;
59054;SDS011;44845;51.444;7.460;2022-09-03T08:18:51;2.75;;;0.70;;
59054;SDS011;44845;51.444;7.460;2022-09-03T08:21:17;1.23;;;0.63;;
59054;SDS011;44845;51.444;7.460;2022-09-03T08:23:47;1.55;;;0.63;;
59054;SDS011;44845;51.444;7.460;2022-09-03T08:26:13;2.45;;;0.70;;
59054;SDS011;44845;51.444;7.460;2022-09-03T08:28:38;5.15;;;1.08;;
59054;SDS011;44845;51.444;7.460;2022-09-03T08:31:08;1.42;;;0.80;;
59054;SDS011;44845;51.444;7.460;2022-09-03T08:33:37;1.38;;;0.70;;
59054;SDS011;44845;51.444;7.460;2022-09-03T08:36:06;5.38;;;0.80;;
59054;SDS011;44845;51.444;7.460;2022-09-03T08:38:32;2.13;;;0.63;;
59054;SDS011;44845;51.444;7.460;2022-09-03T08:41:18;4.70;;;0.88;;
59054;SDS011;44845;51.444;7.460;2022-09-03T08:46:08;1.77;;;0.90;;
59054;SDS011;44845;51.444;7.460;2022-09-03T08:48:34;3.60;;;0.60;;
59054;SDS011;44845;51.444;7.460;2022-09-03T08:50:59;3.90;;;0.97;;
59054;SDS011;44845;51.444;7.460;2022-09-03T08:53:37;3.47;;;0.90;;
59054;SDS011;44845;51.444;7.460;2022-09-03T08:56:25;3.17;;;1.30;;
59054;SDS011;44845;51.444;7.460;2022-09-03T08:58:51;1.95;;;0.80;;
59054;SDS011;44845;51.444;7.460;2022-09-03T09:15:05;3.17;;;0.80;;
59054;SDS011;44845;51.444;7.460;2022-09-03T09:22:17;1.88;;;1.02;;
59054;SDS011;44845;51.444;7.460;2022-09-03T09:24:48;2.63;;;0.90;;
59054;SDS011;44845;51.444;7.460;2022-09-03T09:27:15;3.38;;;0.90;;
59054;SDS011;44845;51.444;7.460;2022-09-03T09:29:41;3.13;;;0.85;;
59054;SDS011;44845;51.444;7.460;2022-09-03T09:32:08;1.63;;;1.02;;
59054;SDS011;44845;51.444;7.460;2022-09-03T09:34:34;6.22;;;0.90;;
59054;SDS011;44845;51.444;7.460;2022-09-03T09:37:00;1.15;;;1.00;;
59054;SDS011;44845;51.444;7.460;2022-09-03T09:39:28;2.55;;;1.00;;
59054;SDS011;44845;51.444;7.460;2022-09-03T09:42:00;1.73;;;0.90;;
59054;SDS011;44845;51.444;7.460;2022-09-03T09:44:29;1.00;;;0.90;;
59054;SDS011;44845;51.444;7.460;2022-09-03T09:47:01;1.70;;;0.77;;
59054;SDS011;44845;51.444;7.460;2022-09-03T09:52:00;1.52;;;0.90;;
59054;SDS011;44845;51.444;7.460;2022-09-03T09:54:26;4.53;;;1.30;;
59054;SDS011;44845;51.444;7.460;2022-09-03T09:57:02;1.55;;;1.00;;
59054;SDS011;44845;51.444;7.460;2022-09-03T09:59:28;3.08;;;1.10;;
59054;SDS011;44845;51.444;7.460;2022-09-03T10:02:01;1.40;;;0.90;;
59054;SDS011;44845;51.444;7.460;2022-09-03T10:04:29;3.58;;;1.10;;
59054;SDS011;44845;51.444;7.460;2022-09-03T10:06:55;2.55;;;0.93;;
59054;SDS011;44845;51.444;7.460;2022-09-03T10:09:26;6.80;;;1.08;;
59054;SDS011;44845;51.444;7.460;2022-09-03T10:12:01;2.10;;;1.20;;
59054;SDS011;44845;51.444;7.460;2022-09-03T10:14:29;2.42;;;1.02;;
59054;SDS011;44845;51.444;7.460;2022-09-03T10:19:45;1.20;;;0.95;;
59054;SDS011;44845;51.444;7.460;2022-09-03T10:22:36;3.00;;;1.10;;
59054;SDS011;44845;51.444;7.460;2022-09-03T10:25:05;1.70;;;0.90;;
59054;SDS011;44845;51.444;7.460;2022-09-03T10:27:31;1.42;;;0.95;;
59054;SDS011;44845;51.444;7.460;2022-09-03T10:29:57;2.22;;;0.95;;
59054;SDS011;44845;51.444;7.460;2022-09-03T10:50:27;2.20;;;1.10;;
59054;SDS011;44845;51.444;7.460;2022-09-03T10:53:06;5.10;;;1.25;;
59054;SDS011;44845;51.444;7.460;2022-09-03T10:55:39;1.35;;;1.13;;
59054;SDS011;44845;51.444;7.460;2022-09-03T11:00:30;1.55;;;1.05;;
59054;SDS011;44845;51.444;7.460;2022-09-03T11:07:50;1.30;;;1.20;;
59054;SDS011;44845;51.444;7.460;2022-09-03T11:10:27;1.15;;;0.95;;
59054;SDS011;44845;51.444;7.460;2022-09-03T11:12:55;3.93;;;1.40;;
59054;SDS011;44845;51.444;7.460;2022-09-03T11:15:35;3.70;;;1.33;;
59054;SDS011;44845;51.444;7.460;2022-09-03T11:18:03;2.95;;;1.38;;
59054;SDS011;44845;51.444;7.460;2022-09-03T11:20:29;1.55;;;1.10;;
59054;SDS011;44845;51.444;7.460;2022-09-03T11:22:56;1.50;;;1.08;;
59054;SDS011;44845;51.444;7.460;2022-09-03T11:25:24;2.00;;;1.17;;
59054;SDS011;44845;51.444;7.460;2022-09-03T11:27:55;2.35;;;0.95;;
59054;SDS011;44845;51.444;7.460;2022-09-03T11:30:34;2.83;;;1.10;;
59054;SDS011;44845;51.444;7.460;2022-09-03T11:33:07;2.90;;;1.02;;
59054;SDS011;44845;51.444;7.460;2022-09-03T11:37:59;2.25;;;1.02;;
59054;SDS011;44845;51.444;7.460;2022-09-03T11:40:35;1.05;;;0.90;;
59054;SDS011;44845;51.444;7.460;2022-09-03T11:43:43;3.78;;;1.20;;
59054;SDS011;44845;51.444;7.460;2022-09-03T11:46:00;3.25;;;1.15;;
59054;SDS011;44845;51.444;7.460;2022-09-03T11:50:56;3.80;;;0.98;;
59054;SDS011;44845;51.444;7.460;2022-09-03T11:53:25;4.03;;;0.90;;
59054;SDS011;44845;51.444;7.460;2022-09-03T11:58:32;1.75;;;0.93;;
59054;SDS011;44845;51.444;7.460;2022-09-03T12:00:59;2.22;;;0.90;;
59054;SDS011;44845;51.444;7.460;2022-09-03T12:03:38;2.60;;;0.93;;
59054;SDS011;44845;51.444;7.460;2022-09-03T12:06:18;2.45;;;1.05;;
59054;SDS011;44845;51.444;7.460;2022-09-03T12:18:48;2.42;;;0.77;;
59054;SDS011;44845;51.444;7.460;2022-09-03T12:21:17;1.17;;;0.70;;
59054;SDS011;44845;51.444;7.460;2022-09-03T12:23:44;1.98;;;0.90;;
59054;SDS011;44845;51.444;7.460;2022-09-03T12:26:12;1.48;;;0.80;;
59054;SDS011;44845;51.444;7.460;2022-09-03T12:28:41;3.88;;;1.30;;
59054;SDS011;44845;51.444;7.460;2022-09-03T12:31:08;1.95;;;1.02;;
59054;SDS011;44845;51.444;7.460;2022-09-03T12:33:46;1.48;;;1.02;;
59054;SDS011;44845;51.444;7.460;2022-09-03T12:36:12;0.98;;;0.95;;
59054;SDS011;44845;51.444;7.460;2022-09-03T12:38:37;1.48;;;1.10;;
59054;SDS011;44845;51.444;7.460;2022-09-03T12:41:02;1.15;;;1.05;;
59054;SDS011;44845;51.444;7.460;2022-09-03T12:43:28;1.52;;;1.05;;
59054;SDS011;44845;51.444;7.460;2022-09-03T12:45:54;2.40;;;1.50;;
59054;SDS011;44845;51.444;7.460;2022-09-03T12:48:19;2.15;;;1.35;;
59054;SDS011;44845;51.444;7.460;2022-09-03T12:50:45;3.80;;;1.48;;
59054;SDS011;44845;51.444;7.460;2022-09-03T12:53:20;1.58;;;1.23;;
59054;SDS011;44845;51.444;7.460;2022-09-03T12:58:12;1.50;;;1.17;;
59054;SDS011;44845;51.444;7.460;2022-09-03T13:00:41;2.55;;;1.20;;
59054;SDS011;44845;51.444;7.460;2022-09-03T13:03:11;3.10;;;1.50;;
59054;SDS011;44845;51.444;7.460;2022-09-03T13:05:41;2.55;;;1.20;;
59054;SDS011;44845;51.444;7.460;2022-09-03T13:08:08;3.08;;;1.27;;
59054;SDS011;44845;51.444;7.460;2022-09-03T13:10:38;2.75;;;1.52;;
59054;SDS011;44845;51.444;7.460;2022-09-03T13:13:25;3.35;;;1.25;;
59054;SDS011;44845;51.444;7.460;2022-09-03T13:21:28;3.35;;;1.30;;
59054;SDS011;44845;51.444;7.460;2022-09-03T13:26:32;1.50;;;1.40;;
59054;SDS011;44845;51.444;7.460;2022-09-03T13:31:33;2.70;;;1.35;;
59054;SDS011;44845;51.444;7.460;2022-09-03T13:34:07;2.00;;;1.30;;
59054;SDS011;44845;51.444;7.460;2022-09-03T13:39:24;2.38;;;1.40;;
59054;SDS011;44845;51.444;7.460;2022-09-03T13:41:53;4.47;;;1.33;;
59054;SDS011;44845;51.444;7.460;2022-09-03T13:46:52;3.00;;;1.63;;
59054;SDS011;44845;51.444;7.460;2022-09-03T13:52:03;1.63;;;1.38;;
59054;SDS011;44845;51.444;7.460;2022-09-03T13:54:37;3.22;;;1.40;;
59054;SDS011;44845;51.444;7.460;2022-09-03T13:57:14;5.80;;;1.50;;
59054;SDS011;44845;51.444;7.460;2022-09-03T14:02:45;1.70;;;1.58;;
59054;SDS011;44845;51.444;7.460;2022-09-03T14:05:19;1.83;;;1.50;;
59054;SDS011;44845;51.444;7.460;2022-09-03T14:07:57;4.40;;;1.33;;
59054;SDS011;44845;51.444;7.460;2022-09-03T14:15:40;2.25;;;1.58;;
59054;SDS011;44845;51.444;7.460;2022-09-03T14:18:09;1.40;;;1.30;;
59054;SDS011;44845;51.444;7.460;2022-09-03T14:25:55;1.95;;;1.55;;
59054;SDS011;44845;51.444;7.460;2022-09-03T14:28:34;1.92;;;1.33;;
59054;SDS011;44845;51.444;7.460;2022-09-03T14:33:38;1.90;;;1.00;;
59054;SDS011;44845;51.444;7.460;2022-09-03T14:38:46;2.63;;;1.35;;
59054;SDS011;44845;51.444;7.460;2022-09-03T14:41:26;1.35;;;1.20;;
59054;SDS011;44845;51.444;7.460;2022-09-03T14:44:02;1.48;;;1.08;;
59054;SDS011;44845;51.444;7.460;2022-09-03T14:52:18;2.40;;;1.17;;
59054;SDS011;44845;51.444;7.460;2022-09-03T15:04:44;2.15;;;1.13;;
59054;SDS011;44845;51.444;7.460;2022-09-03T15:07:23;1.10;;;1.00;;
59054;SDS011;44845;51.444;7.460;2022-09-03T15:10:02;1.38;;;1.08;;
59054;SDS011;44845;51.444;7.460;2022-09-03T15:15:17;1.10;;;1.00;;
59054;SDS011;44845;51.444;7.460;2022-09-03T15:17:53;1.30;;;1.13;;
59054;SDS011;44845;51.444;7.460;2022-09-03T15:20:25;2.53;;;1.10;;
59054;SDS011;44845;51.444;7.460;2022-09-03T15:28:20;1.10;;;1.00;;
59054;SDS011;44845;51.444;7.460;2022-09-03T15:30:50;1.33;;;1.10;;
59054;SDS011;44845;51.444;7.460;2022-09-03T15:41:16;1.20;;;1.10;;
59054;SDS011;44845;51.444;7.460;2022-09-03T15:43:43;3.17;;;0.90;;
59054;SDS011;44845;51.444;7.460;2022-09-03T15:46:13;1.48;;;0.73;;
59054;SDS011;44845;51.444;7.460;2022-09-03T15:49:03;2.55;;;0.90;;
59054;SDS011;44845;51.444;7.460;2022-09-03T15:51:40;1.90;;;1.00;;
59054;SDS011;44845;51.444;7.460;2022-09-03T15:54:17;1.83;;;1.00;;
59054;SDS011;44845;51.444;7.460;2022-09-03T15:59:18;1.13;;;0.90;;
59054;SDS011;44845;51.444;7.460;2022-09-03T16:07:20;0.93;;;0.73;;
59054;SDS011;44845;51.444;7.460;2022-09-03T16:09:52;1.75;;;0.70;;
59054;SDS011;44845;51.444;7.460;2022-09-03T16:15:09;2.13;;;0.80;;
59054;SDS011;44845;51.444;7.460;2022-09-03T16:17:42;2.08;;;1.00;;
59054;SDS011;44845;51.444;7.460;2022-09-03T16:20:24;2.33;;;0.90;;
59054;SDS011;44845;51.444;7.460;2022-09-03T16:22:56;1.27;;;0.82;;
59054;SDS011;44845;51.444;7.460;2022-09-03T16:25:26;1.30;;;0.90;;
59054;SDS011;44845;51.444;7.460;2022-09-03T16:27:54;1.60;;;0.90;;
59054;SDS011;44845;51.444;7.460;2022-09-03T16:30:47;1.25;;;0.90;;
59054;SDS011;44845;51.444;7.460;2022-09-03T16:35:40;2.15;;;0.93;;
59054;SDS011;44845;51.444;7.460;2022-09-03T16:38:26;1.42;;;0.82;;
59054;SDS011;44845;51.444;7.460;2022-09-03T16:56:57;2.05;;;1.20;;
59054;SDS011;44845;51.444;7.460;2022-09-03T17:02:05;1.45;;;1.00;;
59054;SDS011;44845;51.444;7.460;2022-09-03T17:10:05;4.57;;;1.30;;
59054;SDS011;44845;51.444;7.460;2022-09-03T17:12:46;0.80;;;0.80;;
59054;SDS011;44845;51.444;7.460;2022-09-03T17:17:46;1.38;;;1.10;;
59054;SDS011;44845;51.444;7.460;2022-09-03T17:41:33;1.67;;;1.50;;
59054;SDS011;44845;51.444;7.460;2022-09-03T17:49:25;3.40;;;1.40;;
59054;SDS011;44845;51.444;7.460;2022-09-03T17:52:11;1.63;;;1.40;;
59054;SDS011;44845;51.444;7.460;2022-09-03T17:54:44;1.27;;;1.17;;
59054;SDS011;44845;51.444;7.460;2022-09-03T18:03:10;1.48;;;1.38;;
59054;SDS011;44845;51.444;7.460;2022-09-03T18:05:27;1.63;;;1.52;;
59054;SDS011;44845;51.444;7.460;2022-09-03T18:07:57;2.35;;;1.40;;
59054;SDS011;44845;51.444;7.460;2022-09-03T18:10:29;1.83;;;1.50;;
59054;SDS011;44845;51.444;7.460;2022-09-03T18:13:05;5.18;;;2.00;;
59054;SDS011;44845;51.444;7.460;2022-09-03T18:18:07;2.63;;;2.08;;
59054;SDS011;44845;51.444;7.460;2022-09-03T18:20:41;2.58;;;1.98;;
59054;SDS011;44845;51.444;7.460;2022-09-03T18:23:36;5.07;;;2.10;;
59054;SDS011;44845;51.444;7.460;2022-09-03T18:26:26;2.55;;;2.30;;
59054;SDS011;44845;51.444;7.460;2022-09-03T18:29:16;2.55;;;2.13;;
59054;SDS011;44845;51.444;7.460;2022-09-03T18:32:01;6.18;;;2.00;;
59054;SDS011;44845;51.444;7.460;2022-09-03T18:37:29;5.03;;;1.88;;
59054;SDS011;44845;51.444;7.460;2022-09-03T18:40:15;1.85;;;1.60;;
59054;SDS011;44845;51.444;7.460;2022-09-03T18:43:13;2.50;;;1.60;;
59054;SDS011;44845;51.444;7.460;2022-09-03T18:46:00;3.80;;;1.67;;
59054;SDS011;44845;51.444;7.460;2022-09-03T18:48:56;2.30;;;1.67;;
59054;SDS011;44845;51.444;7.460;2022-09-03T18:51:49;2.65;;;2.10;;
59054;SDS011;44845;51.444;7.460;2022-09-03T19:00:20;2.50;;;1.90;;
59054;SDS011;44845;51.444;7.460;2022-09-03T19:08:50;2.17;;;1.70;;
59054;SDS011;44845;51.444;7.460;2022-09-03T19:11:36;3.13;;;1.60;;
59054;SDS011;44845;51.444;7.460;2022-09-03T19:14:31;2.72;;;1.75;;
59054;SDS011;44845;51.444;7.460;2022-09-03T19:17:19;2.38;;;1.33;;
59054;SDS011;44845;51.444;7.460;2022-09-03T19:22:55;2.03;;;1.30;;
59054;SDS011;44845;51.444;7.460;2022-09-03T19:25:39;3.95;;;1.40;;
59054;SDS011;44845;51.444;7.460;2022-09-03T19:28:29;2.50;;;2.08;;
59054;SDS011;44845;51.444;7.460;2022-09-03T19:36:59;1.20;;;1.10;;
59054;SDS011;44845;51.444;7.460;2022-09-03T19:48:40;2.35;;;0.93;;
59054;SDS011;44845;51.444;7.460;2022-09-03T19:51:31;1.50;;;1.30;;
59054;SDS011;44845;51.444;7.460;2022-09-03T19:54:17;1.50;;;1.40;;
59054;SDS011;44845;51.444;7.460;2022-09-03T19:57:03;1.58;;;1.00;;
59054;SDS011;44845;51.444;7.460;2022-09-03T19:59:47;1.30;;;0.85;;
59054;SDS011;44845;51.444;7.460;2022-09-03T20:02:32;0.80;;;0.80;;
59054;SDS011;44845;51.444;7.460;2022-09-03T20:05:17;2.42;;;2.22;;
59054;SDS011;44845;51.444;7.460;2022-09-03T20:08:02;3.45;;;3.15;;
59054;SDS011;44845;51.444;7.460;2022-09-03T20:10:46;1.85;;;1.75;;